Aérodrome :
LOGIN :

S'inscrire | Disclaimer

   EN    FR    IT 

 










Légende :    VFR   VFR Marginal   IFR   IFR Intensif   IFR Très Intensif
Visi : 
Plafond : 
>= 8 km
>= 3000ft
5 à 8 km
1000 à 3000 ft
1500m à 5 km
500 à 1000 ft
800 à 1500m
200 à 500 ft
< 800m
< 200 ft
Symboles :   Orages  Brouillard  Fortes neiges  Fortes précipitations  Vent > 20 kt
SIGMETs :   Divers  Orages  Givrage  Turbulence  Onde Orograph.  Cendres Volcan.







- Altitude de l'aérodrome : 300 ft
- Code IATA : MLA


LMML - Malta Luqa

DERNIER METAR :
  • 200845Z 35005KT 310V010 9999 FEW024 SCT040 11/10 Q1015 NOSIG

METARs EXPIRÉS :
  • 200815Z 28002KT 9999 FEW024CB SCT040 10/09 Q1015 NOSIG
  • 200745Z 34006KT 9999 -RA FEW024CB BKN040 10/09 Q1015 NOSIG
  • 200715Z 31002KT 9999 FEW024CB BKN034 09/08 Q1014 NOSIG RMK LIGHTNING TO NW
  • 200645Z 15003KT 9999 FEW015 FEW024CB 09/08 Q1014 NOSIG
  • 200615Z 12004KT 9999 FEW015 FEW024CB 09/08 Q1014 RETS TEMPO 9000 -TSRA

TAF TAF LMML
Valide du 20 à 06h jusqu'au 21 à 06h UTC


200500Z 2006/2106 26008KT 9999 SCT020
TEMPO 2006/2017 7000 SHRA BKN014TCU
PROB40 2006/2016 VRB20G30KT 3000 TSRAGS BKN008 BKN014CB
BECMG 2102/2105 19010KT
Pas de NOTAMs connus pour ce terrain.
1 SIGMET publié pour la FIR Malta (LMMM) :
 
Orages fréquents
LMMM SIGMET 2 VALID 200800/201200 LMML
LMMM MALTA FIR FRQ TS OBS W OF E01300 CB TOP FL260 MOV E NC=



MET'MAP, la Météo Aéronautique d'un coup d'oeil ! - Copyright ORBIFLY Décembre 2007 - Disclaimer

ORBIFLY MET'MAP TEAM :

Programmation & Développement : Alexandra Zaïnal
Conception & Développement : Baudouin d'Aumeries
Co-Programmation & Développement : Marc-Olivier Méhu
Soutien technique & logistique : Manuel Goepfert

Contact : metmap@orbifly.com




SOURCES & CREDITS :

   NOAA